Jackson Hole Airport
KJAC : now visible

Airfield :











YOU CAN JOIN US ON...

 
LOGIN :

Register | Disclaimer

   EN    FR    IT 

 









Legend :    VFR   Marginal VFR   IFR   Intensive IFR   Very Intensive IFR
Visi :
Ceiling :
>= 8 km
>= 3000ft
5 to 8 km
1000 to 3000 ft
1500m to 5 km
500 to 1000 ft
800 to 1500m
200 to 500 ft
< 800m
< 200 ft
Symbols :   Thunderstorms  Fog  Heavy snow  Heavy precipitations  Wind > 20 kt






- Airport Elevation : 6451 ft
- IATA code : JAC


KJAC - Jackson Hole

CURRENT METAR :
  • 231403Z 04007KT 10SM VCFG FEW001 M21/M22 A3037 RMK AO2

EXPIRED METARs :
  • 231339Z AUTO 04005KT 2SM -SN BR SCT001 M19/M22 A3037 RMK AO2 VIS 3/4V5 SNB09 P0000 FZRANO
  • 231324Z AUTO 00000KT 1SM -SN BR VV001 M19/M21 A3037 RMK AO2 SNB09 P0000 FZRANO
  • 231256Z AUTO 08003KT 10SM CLR M19/M22 A3036 RMK AO2 SNB14E27 SLP399 P0000 T11941217 FZRANO
  • 231156Z AUTO 02010KT 10SM CLR M21/M23 A3036 RMK AO2 SLP386 60000 T12061228 11172 21206 57006 FZRANO

TAF KJAC
Valid from the 23 at 12:00 until the 24 at 12:00 UTC


231128Z 2312/2412 VRB03KT P6SM VCFG SCT002
TEMPO 2313/2317 1SM BR BKN002
FM231800 VRB05KT P6SM SKC
FM240400 19009KT P6SM BKN120
KZLC FIR / North America



MET'MAP, your aeronautical weather chart ! - Copyright ORBIFLY December 2007 - Disclaimer

ORBIFLY MET'MAP TEAM :

Programming & Development : Alexandra Zaïnal
Concept & original design : Baudouin d'Aumeries
Assistance for programming : Marc-Olivier Méhu
Technical & hardware support : Manuel Goepfert

Contact : metmap@orbifly.com




SOURCES & CREDITS :

   NOAA       Earth
Advisory